Terminal Aerodrome Forecast
Issued by NWS Wakefield, VA

Home | Current Version | Previous Version | Text Only | Print | Product List | Glossary On
Versions: 1 2 3 4 5 6 7 8 9 10 11 12 13 14 15 16
000
FTUS41 KAKQ 050526
TAFSBY
TAF
KSBY 050526Z 0506/0606 05007KT P6SM SCT025
     FM050700 05007KT P6SM OVC020
     FM051100 06008KT P6SM OVC007
     FM051300 06013KT P6SM OVC020
     FM051700 07013KT P6SM BKN045
     FM052100 07006KT P6SM SCT150=

USA.gov is the U.S. government's official web portal to all federal, state and local government web resources and services.